Terminal Aerodrome Forecast
Issued by NWS

Home | Current Version | Previous Version | Text Only | Print | Product List | Glossary On
Versions: 1 2 3 4 5 6 7 8 9 10 11 12
000
FTUS43 KGRR 222340
TAFAZO
TAF
KAZO 222340Z 2300/2324 20007KT P6SM -SHRA OVC035
     FM230100 22006KT 6SM -SHRA OVC035
     FM230300 24006KT 5SM -SHRA BR OVC025
      TEMPO 2303/2306 2SM SHRA BR OVC009
     FM230600 29006KT 4SM -RA BR OVC007
     FM231000 33005KT 3SM RA BR OVC007
     FM231800 02004KT 1 1/2SM +RA BR OVC004=

USA.gov is the U.S. government's official web portal to all federal, state and local government web resources and services.